Time;durP1;ratioP1;P1;durP2;ratioP2;P2;SDS_P1;SDS_P2;PMS_P1;PMS_P2;Temp;Humidity;BMP_temperature;BMP_pressure;BME280_temperature;BME280_humidity;BME280_pressure;Samples;Min_cycle;Max_cycle;Signal;HPM_P1;HPM_P2
2023/04/03 00:01:21;;;;;;;10.73;7.45;;;2.70;70.20;;;;;;4676129;29;116431;-84
2023/04/03 00:03:52;;;;;;;9.50;6.95;;;2.70;70.00;;;;;;4728879;29;114536;-84
2023/04/03 00:06:20;;;;;;;11.73;7.72;;;2.60;69.90;;;;;;4723789;29;114167;-83
2023/04/03 00:08:47;;;;;;;10.75;7.55;;;2.60;70.10;;;;;;4691136;29;115440;-83
2023/04/03 00:11:15;;;;;;;9.65;6.95;;;2.60;70.00;;;;;;4690475;29;119362;-83
2023/04/03 00:13:42;;;;;;;8.60;7.32;;;2.60;69.80;;;;;;4705837;29;114889;-84
2023/04/03 00:16:10;;;;;;;10.10;7.70;;;2.50;69.70;;;;;;4706229;29;114712;-84
2023/04/03 00:18:38;;;;;;;10.82;7.82;;;2.40;69.80;;;;;;4720638;29;115286;-84
2023/04/03 00:21:05;;;;;;;10.85;7.70;;;2.40;69.70;;;;;;4720568;29;114716;-83
2023/04/03 00:23:33;;;;;;;11.35;8.23;;;2.30;69.70;;;;;;4704296;29;114843;-83
2023/04/03 00:26:00;;;;;;;11.88;8.32;;;2.20;69.90;;;;;;4704882;29;115000;-83
2023/04/03 00:28:28;;;;;;;11.27;8.40;;;2.30;70.00;;;;;;4718068;29;115358;-84
2023/04/03 00:30:55;;;;;;;11.27;8.70;;;2.20;70.00;;;;;;4703960;29;115699;-83
2023/04/03 00:33:24;;;;;;;11.90;9.35;;;2.20;70.10;;;;;;4705038;29;114817;-83
2023/04/03 00:35:53;;;;;;;12.27;9.30;;;2.20;70.10;;;;;;4704621;29;114570;-83
2023/04/03 00:38:20;;;;;;;12.73;9.43;;;2.20;70.20;;;;;;4675076;29;115277;-86
2023/04/03 00:40:48;;;;;;;14.15;9.40;;;2.20;70.30;;;;;;4689796;29;114616;-83
2023/04/03 00:43:24;;;;;;;11.90;9.70;;;2.30;70.20;;;;;;4715938;29;114787;-85
2023/04/03 00:45:53;;;;;;;10.95;8.95;;;2.30;70.10;;;;;;4701872;29;114913;-84
2023/04/03 00:48:42;;;;;;;12.52;9.20;;;2.30;70.00;;;;;;4700224;29;116066;-83
2023/04/03 00:51:14;;;;;;;11.23;9.07;;;2.30;70.00;;;;;;4701902;29;114936;-83
2023/04/03 00:53:48;;;;;;;13.05;8.98;;;2.30;70.20;;;;;;4686711;29;116659;-82
2023/04/03 00:56:17;;;;;;;10.88;7.97;;;2.40;70.20;;;;;;4703078;29;115069;-82
2023/04/03 00:58:51;;;;;;;11.90;9.20;;;2.40;70.00;;;;;;4686253;29;115146;-82
2023/04/03 01:01:21;;;;;;;17.20;9.17;;;2.30;69.60;;;;;;4700753;29;114755;-81
2023/04/03 01:03:50;;;;;;;11.52;8.65;;;2.20;69.80;;;;;;4672341;29;115501;-81
2023/04/03 01:06:21;;;;;;;14.70;10.32;;;2.20;69.90;;;;;;4701804;29;114536;-81
2023/04/03 01:08:49;;;;;;;15.48;9.93;;;2.20;70.20;;;;;;4686313;29;115250;-81
2023/04/03 01:11:17;;;;;;;10.90;8.93;;;2.20;70.40;;;;;;4700742;29;118246;-82
2023/04/03 01:13:44;;;;;;;11.85;8.68;;;2.30;70.40;;;;;;4701603;29;114617;-81
2023/04/03 01:16:11;;;;;;;12.18;9.13;;;2.30;70.40;;;;;;4703394;29;114633;-82
2023/04/03 01:18:39;;;;;;;12.43;9.88;;;2.30;70.50;;;;;;4688812;29;115799;-82
2023/04/03 01:21:40;;;;;;;11.70;9.85;;;2.40;70.70;;;;;;4688983;29;117607;-82
2023/04/03 01:24:22;;;;;;;11.65;10.30;;;2.50;70.40;;;;;;4704160;29;114839;-81
2023/04/03 01:26:50;;;;;;;9.18;8.10;;;2.50;70.40;;;;;;4719204;29;114664;-81
2023/04/03 01:29:18;;;;;;;10.88;8.98;;;2.50;70.10;;;;;;4689086;29;115263;-82
2023/04/03 01:31:49;;;;;;;12.23;9.02;;;2.50;70.00;;;;;;4718565;29;114710;-82
2023/04/03 01:34:17;;;;;;;11.73;9.40;;;2.50;70.10;;;;;;4719169;29;117282;-81
2023/04/03 01:36:44;;;;;;;10.55;8.45;;;2.50;70.30;;;;;;4705284;29;116688;-81
2023/04/03 01:39:12;;;;;;;12.38;9.75;;;2.60;70.40;;;;;;4704162;29;116903;-82
2023/04/03 01:41:39;;;;;;;10.77;9.30;;;2.60;70.10;;;;;;4718036;29;114793;-82
2023/04/03 01:44:18;;;;;;;11.15;9.45;;;2.50;70.00;;;;;;4719909;29;114545;-81
2023/04/03 01:46:46;;;;;;;11.38;9.23;;;2.50;70.20;;;;;;4703743;29;114601;-81
2023/04/03 01:49:18;;;;;;;12.07;10.13;;;2.50;70.40;;;;;;4720570;29;115337;-81
2023/04/03 01:51:45;;;;;;;11.32;10.00;;;2.60;70.50;;;;;;4733529;29;115352;-82
2023/04/03 01:54:12;;;;;;;12.43;10.00;;;2.60;70.20;;;;;;4727241;29;116021;-82
2023/04/03 01:56:40;;;;;;;12.60;9.88;;;2.50;70.30;;;;;;4720543;29;114565;-82
2023/04/03 01:59:08;;;;;;;13.15;9.02;;;2.50;70.30;;;;;;4718659;29;115389;-81
2023/04/03 02:01:43;;;;;;;11.88;9.68;;;2.50;70.10;;;;;;4718830;29;114718;-81
2023/04/03 02:04:11;;;;;;;12.23;10.27;;;2.40;70.30;;;;;;4704701;29;114481;-82
2023/04/03 02:06:39;;;;;;;12.15;9.93;;;2.30;70.70;;;;;;4705532;29;114600;-82
2023/04/03 02:09:06;;;;;;;14.95;10.90;;;2.40;70.80;;;;;;4704521;29;115265;-82
2023/04/03 02:11:34;;;;;;;14.20;10.60;;;2.50;70.70;;;;;;4718980;29;114751;-81
2023/04/03 02:14:02;;;;;;;12.98;11.18;;;2.40;70.50;;;;;;4719591;29;114582;-83
2023/04/03 02:16:30;;;;;;;13.43;9.77;;;2.30;70.70;;;;;;4719342;29;114957;-83
2023/04/03 02:18:59;;;;;;;14.63;10.85;;;2.30;70.80;;;;;;4703351;29;118780;-82
2023/04/03 02:21:26;;;;;;;16.27;12.70;;;2.30;71.00;;;;;;4704525;29;115161;-83
2023/04/03 02:23:53;;;;;;;13.90;11.00;;;2.40;70.70;;;;;;4705377;29;114700;-82
2023/04/03 02:26:21;;;;;;;16.27;12.25;;;2.30;70.60;;;;;;4701238;29;114814;-82
2023/04/03 02:28:48;;;;;;;15.68;13.13;;;2.20;70.90;;;;;;4703141;29;115296;-82
2023/04/03 02:31:17;;;;;;;15.40;11.65;;;2.30;71.10;;;;;;4704661;29;114742;-82
2023/04/03 02:33:46;;;;;;;16.90;12.65;;;2.30;70.90;;;;;;4690926;29;114788;-83
2023/04/03 02:36:15;;;;;;;18.38;13.15;;;2.30;71.00;;;;;;4704602;29;114800;-82
2023/04/03 02:38:46;;;;;;;15.63;12.88;;;2.40;71.10;;;;;;4719012;29;117387;-82
2023/04/03 02:41:13;;;;;;;16.38;12.30;;;2.40;71.00;;;;;;4705599;29;114759;-82
2023/04/03 02:43:40;;;;;;;18.30;13.32;;;2.50;70.80;;;;;;4707401;29;114751;-82
2023/04/03 02:46:08;;;;;;;16.88;13.05;;;2.40;70.80;;;;;;4692862;29;117586;-82
2023/04/03 02:48:36;;;;;;;19.23;14.63;;;2.50;70.90;;;;;;4706663;29;115873;-82
2023/04/03 02:51:04;;;;;;;17.73;13.57;;;2.50;70.80;;;;;;4692360;29;114901;-82
2023/04/03 02:53:31;;;;;;;19.67;14.02;;;2.50;70.60;;;;;;4722709;29;114542;-83
2023/04/03 02:56:04;;;;;;;18.52;13.65;;;2.50;70.30;;;;;;4679844;29;114527;-81
2023/04/03 02:58:31;;;;;;;18.50;14.10;;;2.50;70.20;;;;;;4721216;29;115467;-82
2023/04/03 03:01:00;;;;;;;16.40;14.15;;;2.50;70.20;;;;;;4706510;29;115232;-82
2023/04/03 03:03:28;;;;;;;19.35;14.18;;;2.50;70.20;;;;;;4707233;29;114591;-82
2023/04/03 03:06:09;;;;;;;18.13;14.73;;;2.40;70.30;;;;;;4721841;29;114415;-82
2023/04/03 03:08:36;;;;;;;16.20;12.70;;;2.50;70.50;;;;;;4706927;29;115195;-81
2023/04/03 03:11:04;;;;;;;19.17;15.13;;;2.50;70.10;;;;;;4706766;29;114780;-82
2023/04/03 03:13:32;;;;;;;17.63;14.02;;;2.40;70.00;;;;;;4722111;29;114608;-82
2023/04/03 03:16:00;;;;;;;18.98;14.48;;;2.40;70.00;;;;;;4692103;29;114767;-82
2023/04/03 03:18:27;;;;;;;21.70;13.77;;;2.30;70.00;;;;;;4691182;29;118283;-82
2023/04/03 03:20:57;;;;;;;14.80;12.20;;;2.20;70.20;;;;;;4691392;29;115937;-82
2023/04/03 03:23:25;;;;;;;17.55;13.57;;;2.20;70.30;;;;;;4677646;29;114871;-81
2023/04/03 03:25:58;;;;;;;17.50;13.25;;;2.20;70.10;;;;;;4721166;29;114579;-82
2023/04/03 03:28:26;;;;;;;17.90;13.57;;;2.20;70.20;;;;;;4676893;29;115149;-82
2023/04/03 03:30:53;;;;;;;17.23;13.15;;;2.20;70.20;;;;;;4705929;29;114756;-81
2023/04/03 03:33:28;;;;;;;18.42;14.07;;;2.20;70.20;;;;;;4722011;29;114550;-83
2023/04/03 03:35:55;;;;;;;16.27;12.63;;;2.20;70.10;;;;;;4732570;29;115270;-82
2023/04/03 03:38:26;;;;;;;17.42;13.07;;;2.20;70.20;;;;;;4731911;29;114347;-82
2023/04/03 03:40:54;;;;;;;18.58;13.43;;;2.20;70.20;;;;;;4705914;29;114876;-82
2023/04/03 03:43:25;;;;;;;18.42;12.48;;;2.20;70.20;;;;;;4705527;29;115343;-83
2023/04/03 03:45:58;;;;;;;18.23;13.10;;;2.30;70.20;;;;;;4706916;29;114558;-83
2023/04/03 03:48:27;;;;;;;15.63;12.90;;;2.30;70.10;;;;;;4705635;29;115564;-82
2023/04/03 03:50:55;;;;;;;19.23;14.70;;;2.40;70.10;;;;;;4720198;29;114692;-83
2023/04/03 03:53:28;;;;;;;18.42;13.88;;;2.40;70.20;;;;;;4706424;29;114549;-83
2023/04/03 03:56:01;;;;;;;22.30;14.02;;;2.50;69.90;;;;;;4706969;29;114896;-82
2023/04/03 03:58:30;;;;;;;17.67;14.23;;;2.50;69.80;;;;;;4705573;29;114779;-83
2023/04/03 04:01:09;;;;;;;16.17;12.25;;;2.40;69.90;;;;;;4692055;29;115970;-83
2023/04/03 04:03:45;;;;;;;19.42;14.02;;;2.50;69.80;;;;;;4692477;29;114736;-83
2023/04/03 04:06:17;;;;;;;18.50;12.05;;;2.50;69.80;;;;;;4720574;29;114522;-83
2023/04/03 04:08:50;;;;;;;16.42;12.55;;;2.50;69.50;;;;;;4718814;29;119348;-82
2023/04/03 04:11:18;;;;;;;17.45;13.15;;;2.40;69.30;;;;;;4705310;29;115023;-83
2023/04/03 04:13:48;;;;;;;18.73;14.23;;;2.30;69.40;;;;;;4706641;29;114498;-83
2023/04/03 04:16:28;;;;;;;18.05;12.60;;;2.30;69.30;;;;;;4720752;29;114554;-82
2023/04/03 04:18:59;;;;;;;18.17;12.73;;;2.40;69.10;;;;;;4690945;29;115709;-82
2023/04/03 04:21:27;;;;;;;17.85;12.80;;;2.20;69.20;;;;;;4720155;29;114879;-82
2023/04/03 04:23:54;;;;;;;15.90;12.52;;;2.20;69.20;;;;;;4705409;29;114597;-82
2023/04/03 04:26:22;;;;;;;17.10;12.48;;;2.20;68.80;;;;;;4720748;29;114666;-81
2023/04/03 04:28:50;;;;;;;19.08;12.30;;;2.10;68.80;;;;;;4720963;29;115645;-81
2023/04/03 04:31:19;;;;;;;20.17;14.05;;;2.10;69.00;;;;;;4703376;29;114689;-82
2023/04/03 04:33:46;;;;;;;18.58;12.82;;;2.10;69.00;;;;;;4721571;29;114679;-81
2023/04/03 04:36:15;;;;;;;18.73;11.95;;;2.20;69.20;;;;;;4720654;29;114598;-82
2023/04/03 04:39:06;;;;;;;16.80;12.88;;;2.20;69.20;;;;;;4704540;29;115353;-82
2023/04/03 04:41:34;;;;;;;14.93;11.43;;;2.20;69.00;;;;;;4719519;29;114814;-83
2023/04/03 04:44:08;;;;;;;17.17;11.30;;;2.30;68.80;;;;;;4690243;29;115670;-83
2023/04/03 04:47:01;;;;;;;13.95;10.10;;;2.30;68.40;;;;;;4686526;29;114736;-83
2023/04/03 04:49:38;;;;;;;15.85;11.35;;;2.30;68.00;;;;;;4722322;29;115753;-82
2023/04/03 04:52:06;;;;;;;14.25;10.43;;;2.20;67.70;;;;;;4723049;29;114569;-80
2023/04/03 04:54:34;;;;;;;14.45;10.35;;;2.20;67.70;;;;;;4686650;29;114580;-82
2023/04/03 04:57:02;;;;;;;16.05;10.80;;;2.10;67.80;;;;;;4678189;29;114563;-83
2023/04/03 04:59:30;;;;;;;16.58;11.60;;;2.10;67.50;;;;;;4693445;29;115292;-81
2023/04/03 05:01:58;;;;;;;18.63;10.13;;;2.10;67.50;;;;;;4708011;29;117624;-81
2023/04/03 05:04:26;;;;;;;15.02;10.50;;;2.00;67.30;;;;;;4724436;29;114788;-82
2023/04/03 05:07:01;;;;;;;14.45;10.20;;;1.90;67.10;;;;;;4722909;29;114690;-82
2023/04/03 05:09:31;;;;;;;18.15;12.10;;;1.80;67.20;;;;;;4693770;29;115338;-82
2023/04/03 05:11:58;;;;;;;18.02;11.15;;;1.80;67.10;;;;;;4702073;29;115052;-82
2023/04/03 05:14:30;;;;;;;17.02;11.68;;;1.80;66.90;;;;;;4712365;29;114672;-83
2023/04/03 05:17:02;;;;;;;17.00;10.90;;;1.70;67.10;;;;;;4699395;29;114829;-83
2023/04/03 05:19:36;;;;;;;19.52;12.55;;;1.70;66.70;;;;;;4712236;29;116011;-86
2023/04/03 05:22:05;;;;;;;20.50;14.23;;;1.70;67.00;;;;;;4713857;29;114258;-81
2023/04/03 05:24:33;;;;;;;18.42;13.23;;;1.70;67.10;;;;;;4717752;29;114707;-82
2023/04/03 05:27:03;;;;;;;16.30;10.88;;;1.70;67.00;;;;;;4707568;29;114984;-81
2023/04/03 05:29:36;;;;;;;18.85;12.50;;;1.70;66.70;;;;;;4710771;29;118647;-81
2023/04/03 05:32:05;;;;;;;17.70;13.18;;;1.70;66.40;;;;;;4682535;29;114490;-82
2023/04/03 05:34:33;;;;;;;18.85;11.80;;;1.70;66.70;;;;;;4695957;29;114564;-82
2023/04/03 05:37:04;;;;;;;19.17;11.10;;;1.70;66.30;;;;;;4695679;29;116299;-81
2023/04/03 05:39:34;;;;;;;22.48;11.18;;;1.60;66.30;;;;;;4709652;29;115403;-81
2023/04/03 05:42:02;;;;;;;15.30;10.80;;;1.60;66.60;;;;;;4696501;29;114806;-82
2023/04/03 05:44:30;;;;;;;17.85;11.27;;;1.60;66.20;;;;;;4710079;29;114516;-82
2023/04/03 05:46:58;;;;;;;15.15;10.93;;;1.60;66.10;;;;;;4695665;29;114829;-81
2023/04/03 05:49:25;;;;;;;17.20;11.68;;;1.50;66.00;;;;;;4692018;29;118462;-81
2023/04/03 05:51:53;;;;;;;17.40;11.93;;;1.50;65.90;;;;;;4709833;29;115051;-81
2023/04/03 05:54:27;;;;;;;17.55;11.90;;;1.50;66.10;;;;;;4710893;29;114869;-81
2023/04/03 05:57:02;;;;;;;15.88;10.32;;;1.40;66.00;;;;;;4695531;29;114608;-81
2023/04/03 05:59:45;;;;;;;14.88;9.75;;;1.40;66.10;;;;;;4708429;29;114579;-82
2023/04/03 06:02:16;;;;;;;15.18;9.90;;;1.40;65.70;;;;;;4695737;29;114788;-84
2023/04/03 06:04:46;;;;;;;14.55;9.73;;;1.30;65.80;;;;;;4693449;29;114647;-82
2023/04/03 06:07:22;;;;;;;18.73;10.85;;;1.40;65.80;;;;;;4713347;29;114618;-81
2023/04/03 06:09:51;;;;;;;16.08;10.68;;;1.40;65.70;;;;;;4695205;29;115856;-82
2023/04/03 06:12:19;;;;;;;16.15;10.30;;;1.30;65.50;;;;;;4680990;29;115406;-82
2023/04/03 06:14:47;;;;;;;15.30;10.30;;;1.30;65.40;;;;;;4698705;29;114628;-82
2023/04/03 06:17:15;;;;;;;15.98;11.20;;;1.30;65.30;;;;;;4693079;29;114504;-81
2023/04/03 06:19:44;;;;;;;14.52;10.35;;;1.20;65.10;;;;;;4722553;29;115845;-81
2023/04/03 06:22:11;;;;;;;17.65;9.70;;;1.20;65.40;;;;;;4690420;29;118600;-84
2023/04/03 06:24:39;;;;;;;13.60;9.77;;;1.20;65.20;;;;;;4692252;29;117185;-81
2023/04/03 06:27:07;;;;;;;21.95;11.18;;;1.20;65.40;;;;;;4720704;29;114877;-81
2023/04/03 06:29:35;;;;;;;16.55;10.35;;;1.20;65.40;;;;;;4703743;29;117625;-82
2023/04/03 06:32:02;;;;;;;13.88;10.07;;;1.10;65.30;;;;;;4722527;29;114802;-81
2023/04/03 06:34:33;;;;;;;16.88;11.10;;;1.20;65.30;;;;;;4693009;29;114706;-82
2023/04/03 06:37:01;;;;;;;18.77;13.35;;;1.20;65.20;;;;;;4722462;29;114908;-82
2023/04/03 06:39:29;;;;;;;17.35;10.00;;;1.20;65.30;;;;;;4676832;29;117881;-82
2023/04/03 06:41:56;;;;;;;14.18;10.02;;;1.30;64.90;;;;;;4717314;29;114810;-81
2023/04/03 06:44:34;;;;;;;16.92;9.65;;;1.20;65.10;;;;;;4722160;29;114582;-83
2023/04/03 06:47:02;;;;;;;14.98;9.25;;;1.20;64.80;;;;;;4717088;29;114524;-80
2023/04/03 06:49:31;;;;;;;16.77;10.02;;;1.30;64.80;;;;;;4718703;29;116910;-80
2023/04/03 06:51:59;;;;;;;15.95;10.85;;;1.20;64.70;;;;;;4718130;29;116026;-81
2023/04/03 06:54:28;;;;;;;17.17;11.18;;;1.20;64.90;;;;;;4701528;29;115237;-82
2023/04/03 06:56:55;;;;;;;19.08;11.38;;;1.20;65.00;;;;;;4703732;29;114728;-81
2023/04/03 06:59:23;;;;;;;20.77;11.20;;;1.20;65.10;;;;;;4721077;29;115919;-81
2023/04/03 07:01:51;;;;;;;16.90;11.32;;;1.30;65.10;;;;;;4701299;29;114512;-81
2023/04/03 07:04:21;;;;;;;21.35;11.43;;;1.40;65.00;;;;;;4721341;29;114403;-81
2023/04/03 07:06:48;;;;;;;16.38;10.40;;;1.40;64.80;;;;;;4728654;29;114607;-81
2023/04/03 07:09:17;;;;;;;17.23;9.95;;;1.50;64.70;;;;;;4692929;29;115849;-81
2023/04/03 07:12:05;;;;;;;15.32;10.20;;;1.40;64.60;;;;;;4707981;29;114845;-82
2023/04/03 07:14:47;;;;;;;16.98;9.25;;;1.40;64.60;;;;;;4686459;29;116233;-81
2023/04/03 07:17:14;;;;;;;14.50;10.32;;;1.50;64.30;;;;;;4708387;29;114506;-83
2023/04/03 07:19:42;;;;;;;17.90;9.77;;;1.30;64.20;;;;;;4706410;29;115888;-82
2023/04/03 07:22:10;;;;;;;15.38;9.07;;;1.20;64.40;;;;;;4677854;29;117635;-83
2023/04/03 07:24:38;;;;;;;16.00;10.32;;;1.20;64.80;;;;;;4693212;29;114326;-81
2023/04/03 07:27:05;;;;;;;15.98;9.93;;;1.30;64.80;;;;;;4722345;29;114367;-82
2023/04/03 07:29:34;;;;;;;16.23;9.68;;;1.30;64.60;;;;;;4706419;29;115326;-82
2023/04/03 07:32:02;;;;;;;17.17;9.82;;;1.40;64.70;;;;;;4692104;29;115698;-81
2023/04/03 07:34:30;;;;;;;14.27;8.77;;;1.40;64.80;;;;;;4692882;29;114466;-81
2023/04/03 07:36:58;;;;;;;17.75;9.25;;;1.50;64.60;;;;;;4720577;29;114750;-83
2023/04/03 07:39:26;;;;;;;16.55;9.27;;;1.50;64.10;;;;;;4693014;29;114844;-83
2023/04/03 07:41:55;;;;;;;18.15;9.98;;;1.60;64.20;;;;;;4706028;29;116006;-83
2023/04/03 07:44:22;;;;;;;15.73;9.35;;;1.70;64.40;;;;;;4691541;29;116074;-82
2023/04/03 07:46:50;;;;;;;14.75;8.82;;;1.90;64.10;;;;;;4681011;29;114626;-82
2023/04/03 07:49:18;;;;;;;16.05;9.30;;;2.00;63.70;;;;;;4707491;29;115809;-82
2023/04/03 07:51:46;;;;;;;16.02;8.45;;;2.00;63.70;;;;;;4691792;29;114755;-82
2023/04/03 07:54:14;;;;;;;16.73;9.80;;;2.00;63.00;;;;;;4709485;29;114756;-83
2023/04/03 07:56:42;;;;;;;15.68;8.95;;;2.00;63.60;;;;;;4689910;29;114708;-82
2023/04/03 07:59:11;;;;;;;18.63;9.45;;;2.00;62.90;;;;;;4688817;29;115295;-82
2023/04/03 08:01:42;;;;;;;15.35;8.35;;;1.90;62.40;;;;;;4690780;29;114750;-83
2023/04/03 08:04:09;;;;;;;18.45;9.88;;;1.80;62.10;;;;;;4710921;29;114559;-82
2023/04/03 08:06:37;;;;;;;14.27;8.38;;;1.70;62.60;;;;;;4709480;29;114494;-83
2023/04/03 08:09:15;;;;;;;15.40;8.02;;;1.70;62.60;;;;;;4710969;29;116361;-83
2023/04/03 08:11:45;;;;;;;13.27;8.50;;;1.60;62.80;;;;;;4693758;29;114731;-83
2023/04/03 08:14:16;;;;;;;12.82;7.75;;;1.70;63.20;;;;;;4690911;29;114583;-81
2023/04/03 08:16:45;;;;;;;12.32;7.43;;;1.80;62.80;;;;;;4696168;29;114487;-82
2023/04/03 08:19:15;;;;;;;12.63;7.50;;;1.90;62.40;;;;;;4707450;29;117800;-83
2023/04/03 08:21:56;;;;;;;14.10;7.60;;;1.90;62.00;;;;;;4682312;29;114675;-82
2023/04/03 08:24:25;;;;;;;12.68;7.78;;;1.90;61.50;;;;;;4710276;29;116646;-82
2023/04/03 08:26:52;;;;;;;11.85;7.43;;;2.00;61.50;;;;;;4710935;29;114653;-83
2023/04/03 08:29:22;;;;;;;13.70;7.55;;;2.10;61.00;;;;;;4707957;29;115484;-82
2023/04/03 08:31:50;;;;;;;14.48;7.20;;;2.10;60.30;;;;;;4676332;29;117469;-82
2023/04/03 08:34:17;;;;;;;14.57;7.88;;;2.20;59.80;;;;;;4668362;29;114542;-81
2023/04/03 08:36:45;;;;;;;9.70;6.13;;;2.20;59.50;;;;;;4710823;29;114447;-82
2023/04/03 08:39:12;;;;;;;12.13;5.57;;;2.20;58.90;;;;;;4677894;29;115393;-81
2023/04/03 08:41:43;;;;;;;10.38;5.90;;;2.00;57.80;;;;;;4711033;29;114967;-82
2023/04/03 08:44:47;;;;;;;12.15;6.10;;;1.90;58.70;;;;;;4668958;29;114315;-82
2023/04/03 08:47:45;;;;;;;9.60;6.00;;;2.20;58.00;;;;;;4684510;29;114954;-82
2023/04/03 08:50:22;;;;;;;10.95;6.55;;;2.40;57.30;;;;;;4711808;29;115625;-82
2023/04/03 08:52:55;;;;;;;9.18;5.35;;;2.50;57.10;;;;;;4673724;29;114703;-83
2023/04/03 08:55:34;;;;;;;12.25;5.53;;;2.50;55.80;;;;;;4701302;29;114918;-83
2023/04/03 08:58:11;;;;;;;10.70;5.38;;;2.30;54.80;;;;;;4687922;29;114667;-83
2023/04/03 09:00:51;;;;;;;8.43;4.95;;;2.10;55.00;;;;;;4706407;29;114399;-83
2023/04/03 09:03:21;;;;;;;8.18;4.47;;;2.10;55.00;;;;;;4691586;29;114774;-81
2023/04/03 09:06:20;;;;;;;8.48;4.63;;;1.90;54.80;;;;;;4704706;29;115002;-82
2023/04/03 09:09:21;;;;;;;10.25;4.80;;;2.00;54.50;;;;;;4686532;29;114908;-83
2023/04/03 09:12:23;;;;;;;12.05;4.60;;;2.10;54.90;;;;;;4701374;29;115253;-83
2023/04/03 09:15:01;;;;;;;13.88;6.25;;;2.30;54.30;;;;;;4719874;29;114726;-83
2023/04/03 09:17:38;;;;;;;11.02;5.07;;;2.60;54.80;;;;;;4721448;29;114664;-83
2023/04/03 09:20:31;;;;;;;12.05;4.82;;;2.90;54.40;;;;;;4717491;29;114512;-83
2023/04/03 09:22:59;;;;;;;9.77;4.70;;;3.10;53.90;;;;;;4704836;29;116458;-83
2023/04/03 09:25:30;;;;;;;7.00;3.78;;;3.20;52.40;;;;;;4684531;29;115073;-83
2023/04/03 09:27:59;;;;;;;7.05;3.63;;;3.10;51.80;;;;;;4673814;29;114809;-83
2023/04/03 09:30:27;;;;;;;8.38;4.25;;;3.00;50.60;;;;;;4672436;29;114624;-82
2023/04/03 09:32:57;;;;;;;8.00;4.00;;;2.80;50.70;;;;;;4704754;29;115335;-83
2023/04/03 09:35:33;;;;;;;7.75;2.80;;;2.80;51.00;;;;;;4719179;29;114874;-83
2023/04/03 09:38:17;;;;;;;10.88;3.35;;;2.70;49.50;;;;;;4715990;29;114603;-83
2023/04/03 09:40:49;;;;;;;5.25;2.60;;;2.50;49.20;;;;;;4701427;29;114634;-82
2023/04/03 09:43:24;;;;;;;8.25;2.92;;;2.50;47.90;;;;;;4702362;29;115534;-82
2023/04/03 09:45:52;;;;;;;8.63;2.72;;;2.30;48.30;;;;;;4716895;29;116653;-82
2023/04/03 09:48:26;;;;;;;7.88;3.45;;;2.20;48.10;;;;;;4702345;29;116624;-82
2023/04/03 09:50:58;;;;;;;6.68;2.53;;;2.10;48.10;;;;;;4716612;29;114888;-82
2023/04/03 09:53:38;;;;;;;6.35;2.65;;;2.20;48.30;;;;;;4701998;29;118995;-82
2023/04/03 09:56:17;;;;;;;6.53;2.97;;;2.30;47.20;;;;;;4677899;29;114743;-83
2023/04/03 09:59:03;;;;;;;4.45;2.10;;;2.50;47.30;;;;;;4716386;29;114598;-83
2023/04/03 10:01:39;;;;;;;5.97;2.17;;;2.70;47.00;;;;;;4701494;29;114978;-83
2023/04/03 10:04:16;;;;;;;6.80;2.70;;;2.90;45.50;;;;;;4657128;29;114849;-84
2023/04/03 10:06:48;;;;;;;8.45;3.33;;;2.90;45.60;;;;;;4700848;29;115832;-82
2023/04/03 10:09:28;;;;;;;7.55;3.55;;;3.00;46.40;;;;;;4689431;29;115705;-83
2023/04/03 10:12:08;;;;;;;5.88;3.10;;;3.20;46.60;;;;;;4688137;29;115031;-82
2023/04/03 10:14:41;;;;;;;7.45;3.05;;;3.30;46.20;;;;;;4699271;29;116588;-81
2023/04/03 10:17:35;;;;;;;7.57;3.30;;;3.30;45.50;;;;;;4700687;29;114748;-83
2023/04/03 10:20:28;;;;;;;8.68;4.05;;;3.30;44.10;;;;;;4700919;29;114580;-82
2023/04/03 10:23:33;;;;;;;10.38;3.88;;;3.20;44.20;;;;;;4675535;29;114896;-83
2023/04/03 10:26:28;;;;;;;7.97;3.50;;;3.20;45.20;;;;;;4701842;29;115343;-82
2023/04/03 10:29:16;;;;;;;9.52;3.10;;;3.40;46.30;;;;;;4702642;29;116049;-83
2023/04/03 10:32:07;;;;;;;5.82;3.00;;;3.70;44.80;;;;;;4716681;29;114786;-82
2023/04/03 10:34:42;;;;;;;7.07;2.90;;;3.90;45.50;;;;;;4700145;29;115018;-82
2023/04/03 10:37:43;;;;;;;7.30;2.47;;;4.20;44.30;;;;;;4686332;29;116170;-82
2023/04/03 10:40:43;;;;;;;6.40;2.30;;;4.30;43.40;;;;;;4702683;29;114700;-83
2023/04/03 10:43:44;;;;;;;5.65;2.08;;;4.30;42.50;;;;;;4703540;29;114770;-83
2023/04/03 10:46:37;;;;;;;5.85;2.15;;;4.10;40.40;;;;;;4704246;29;114763;-83
2023/04/03 10:49:49;;;;;;;6.00;2.28;;;3.90;40.30;;;;;;4720253;29;116090;-83
2023/04/03 10:53:01;;;;;;;6.30;3.30;;;3.80;40.20;;;;;;4710693;29;114384;-83
2023/04/03 10:55:58;;;;;;;6.70;2.75;;;3.80;38.80;;;;;;4717679;29;114955;-82
2023/04/03 10:58:40;;;;;;;4.13;2.10;;;3.90;39.10;;;;;;4702808;29;114623;-83
2023/04/03 11:01:18;;;;;;;6.18;2.22;;;3.90;38.40;;;;;;4684179;29;115275;-83
2023/04/03 11:03:57;;;;;;;5.22;2.28;;;3.80;38.00;;;;;;4677909;29;116330;-82
2023/04/03 11:06:34;;;;;;;4.63;2.45;;;3.80;38.30;;;;;;4662819;29;114618;-81
2023/04/03 11:09:28;;;;;;;4.65;2.13;;;3.80;39.00;;;;;;4664698;29;114510;-82
2023/04/03 11:12:14;;;;;;;6.50;2.28;;;3.90;39.70;;;;;;4692602;29;115464;-81
2023/04/03 11:14:42;;;;;;;6.30;2.75;;;4.00;39.30;;;;;;4680169;29;115061;-82
2023/04/03 11:17:18;;;;;;;6.00;2.47;;;3.90;39.50;;;;;;4678593;29;114591;-82
2023/04/03 11:20:18;;;;;;;4.95;2.38;;;3.90;38.90;;;;;;4692542;29;114646;-83
2023/04/03 11:23:19;;;;;;;6.43;2.40;;;3.90;38.90;;;;;;4678538;29;115024;-83
2023/04/03 11:25:47;;;;;;;5.55;2.50;;;3.80;38.60;;;;;;4688982;29;114637;-82
2023/04/03 11:28:15;;;;;;;4.25;2.05;;;3.70;38.60;;;;;;4675385;29;114498;-82
2023/04/03 11:31:05;;;;;;;3.80;1.98;;;3.70;38.30;;;;;;4689326;29;114763;-81
2023/04/03 11:33:58;;;;;;;4.25;2.10;;;3.70;37.10;;;;;;4691619;29;115212;-82
2023/04/03 11:36:32;;;;;;;4.97;2.53;;;3.60;37.40;;;;;;4678415;29;117597;-82
2023/04/03 11:39:23;;;;;;;5.82;2.30;;;3.60;37.60;;;;;;4676064;29;114793;-82
2023/04/03 11:41:51;;;;;;;5.25;2.88;;;3.70;38.50;;;;;;4669817;30;114690;-82
2023/04/03 11:44:38;;;;;;;5.97;2.80;;;3.70;39.00;;;;;;4673417;30;117511;-83
2023/04/03 11:47:10;;;;;;;6.30;2.70;;;3.70;38.50;;;;;;4661171;30;114809;-83
2023/04/03 11:49:59;;;;;;;7.18;2.80;;;3.70;38.00;;;;;;4680884;30;114665;-84
2023/04/03 11:52:48;;;;;;;6.63;2.25;;;3.70;38.10;;;;;;4699227;29;114560;-84
2023/04/03 11:55:21;;;;;;;6.78;2.80;;;3.70;38.90;;;;;;4683497;29;115662;-83
2023/04/03 11:58:00;;;;;;;6.28;2.50;;;3.70;39.10;;;;;;4684790;30;117452;-83
2023/04/03 12:00:44;;;;;;;5.10;2.80;;;3.90;38.60;;;;;;4687531;30;114951;-83
2023/04/03 12:03:32;;;;;;;6.57;2.38;;;3.80;39.00;;;;;;4676557;30;115056;-84
2023/04/03 12:06:16;;;;;;;7.28;3.30;;;3.80;39.50;;;;;;4677692;30;115353;-83
2023/04/03 12:08:48;;;;;;;7.47;3.90;;;3.80;39.50;;;;;;4677927;30;117122;-83
2023/04/03 12:11:28;;;;;;;5.50;3.25;;;3.70;39.40;;;;;;4670152;29;115967;-83
2023/04/03 12:13:55;;;;;;;6.25;2.50;;;3.70;39.50;;;;;;4672069;30;119195;-82
2023/04/03 12:16:38;;;;;;;5.22;2.90;;;3.60;39.00;;;;;;4680975;30;118278;-82
2023/04/03 12:19:16;;;;;;;7.30;3.47;;;3.60;39.20;;;;;;4675869;30;114728;-83
2023/04/03 12:21:46;;;;;;;6.57;2.72;;;3.70;39.50;;;;;;4676870;30;114674;-82
2023/04/03 12:24:16;;;;;;;7.35;3.78;;;3.80;38.60;;;;;;4673060;30;114967;-82
2023/04/03 12:26:59;;;;;;;7.75;3.22;;;3.90;39.00;;;;;;4673135;30;118947;-83
2023/04/03 12:29:34;;;;;;;7.13;3.40;;;3.90;38.60;;;;;;4679174;30;117669;-84
2023/04/03 12:32:39;;;;;;;7.03;3.30;;;3.90;39.40;;;;;;4700513;29;114936;-84
2023/04/03 12:35:40;;;;;;;7.38;2.58;;;4.10;39.00;;;;;;4673136;30;114601;-85
2023/04/03 12:38:40;;;;;;;5.50;2.63;;;4.10;38.70;;;;;;4661574;30;118931;-86
2023/04/03 12:41:53;;;;;;;9.68;3.47;;;4.10;38.70;;;;;;4676096;29;114239;-84
2023/04/03 12:44:31;;;;;;;7.30;2.78;;;4.10;39.20;;;;;;4687307;29;114888;-84
2023/04/03 12:47:00;;;;;;;4.32;2.40;;;4.10;38.30;;;;;;4694986;29;114531;-85
2023/04/03 12:49:40;;;;;;;6.65;2.95;;;3.90;38.50;;;;;;4665073;29;116790;-85
2023/04/03 12:52:35;;;;;;;5.93;2.90;;;3.90;38.90;;;;;;4669698;29;115072;-84
2023/04/03 12:55:15;;;;;;;6.35;2.78;;;3.90;39.10;;;;;;4674887;29;114698;-84
2023/04/03 12:57:42;;;;;;;5.30;2.65;;;3.80;38.80;;;;;;4676101;29;114724;-83
2023/04/03 13:00:39;;;;;;;4.85;2.78;;;3.80;39.50;;;;;;4666388;29;115268;-83
2023/04/03 13:03:15;;;;;;;5.80;2.42;;;3.90;38.90;;;;;;4704668;29;118409;-84
2023/04/03 13:05:44;;;;;;;5.43;2.67;;;3.90;38.40;;;;;;4678484;29;114249;-84
2023/04/03 13:08:14;;;;;;;5.78;2.92;;;3.90;38.70;;;;;;4669219;29;116043;-83
2023/04/03 13:11:06;;;;;;;6.22;2.63;;;3.90;38.50;;;;;;4687215;29;115748;-84